Time;durP1;ratioP1;P1;durP2;ratioP2;P2;SDS_P1;SDS_P2;PMS_P1;PMS_P2;Temp;Humidity;BMP_temperature;BMP_pressure;BME280_temperature;BME280_humidity;BME280_pressure;Samples;Min_cycle;Max_cycle;Signal;HPM_P1;HPM_P2
2022/05/25 00:00:08;;;;;;;2.05;1.30;;;;;;;;;;5091868;28;20388;-67
2022/05/25 00:02:35;;;;;;;2.28;0.80;;;;;;;;;;5085388;28;20044;-67
2022/05/25 00:05:03;;;;;;;2.22;0.73;;;;;;;;;;5070963;28;20055;-67
2022/05/25 00:07:29;;;;;;;2.17;1.50;;;;;;;;;;5090184;28;20509;-67
2022/05/25 00:09:55;;;;;;;4.78;2.65;;;;;;;;;;5091761;28;20484;-67
2022/05/25 00:12:22;;;;;;;1.80;1.23;;;;;;;;;;5091443;28;20409;-67
2022/05/25 00:14:49;;;;;;;3.15;1.33;;;;;;;;;;5091514;28;20052;-67
2022/05/25 00:17:16;;;;;;;2.67;1.00;;;;;;;;;;5091629;28;20052;-67
2022/05/25 00:20:00;;;;;;;2.95;1.10;;;;;;;;;;5091566;28;20109;-67
2022/05/25 00:22:28;;;;;;;2.60;0.80;;;;;;;;;;5091572;28;20047;-67
2022/05/25 00:24:55;;;;;;;3.65;0.65;;;;;;;;;;5091612;28;20048;-67
2022/05/25 00:27:21;;;;;;;1.45;0.60;;;;;;;;;;5091389;28;20048;-67
2022/05/25 00:29:48;;;;;;;2.45;0.95;;;;;;;;;;5091497;28;20048;-66
2022/05/25 00:32:15;;;;;;;2.95;0.80;;;;;;;;;;5091359;28;20052;-67
2022/05/25 00:34:42;;;;;;;3.05;1.10;;;;;;;;;;5088562;28;20078;-67
2022/05/25 00:37:08;;;;;;;2.17;0.77;;;;;;;;;;5071026;28;20048;-67
2022/05/25 00:39:35;;;;;;;1.95;0.77;;;;;;;;;;5087535;28;20060;-67
2022/05/25 00:42:05;;;;;;;1.52;0.63;;;;;;;;;;5091470;28;20097;-67
2022/05/25 00:44:31;;;;;;;1.73;0.90;;;;;;;;;;5091130;28;20541;-67
2022/05/25 00:46:58;;;;;;;1.60;0.68;;;;;;;;;;5094277;28;20044;-67
2022/05/25 00:49:29;;;;;;;3.95;0.73;;;;;;;;;;5094895;28;20051;-67
2022/05/25 00:51:58;;;;;;;2.50;0.63;;;;;;;;;;5094928;28;20048;-67
2022/05/25 00:54:28;;;;;;;1.40;0.65;;;;;;;;;;5094980;28;20044;-67
2022/05/25 00:56:55;;;;;;;1.67;0.80;;;;;;;;;;5094647;28;20059;-66
2022/05/25 00:59:26;;;;;;;1.52;0.93;;;;;;;;;;5095036;28;20067;-67
2022/05/25 01:01:52;;;;;;;4.47;0.95;;;;;;;;;;5094885;28;20075;-67
2022/05/25 01:04:19;;;;;;;2.10;1.00;;;;;;;;;;5095011;28;20149;-67
2022/05/25 01:07:04;;;;;;;3.10;1.00;;;;;;;;;;5094574;28;20086;-67
2022/05/25 01:09:33;;;;;;;2.28;1.20;;;;;;;;;;5094513;28;20083;-67
2022/05/25 01:12:03;;;;;;;3.55;1.40;;;;;;;;;;5093582;28;20072;-67
2022/05/25 01:14:38;;;;;;;3.63;1.50;;;;;;;;;;5094775;28;20127;-66
2022/05/25 01:17:23;;;;;;;2.50;1.23;;;;;;;;;;5094393;28;20052;-67
2022/05/25 01:19:56;;;;;;;2.53;1.00;;;;;;;;;;5094508;28;20447;-66
2022/05/25 01:22:36;;;;;;;2.90;1.17;;;;;;;;;;5094448;28;20476;-67
2022/05/25 01:25:15;;;;;;;5.75;1.85;;;;;;;;;;5094223;28;20138;-66
2022/05/25 01:27:44;;;;;;;2.58;1.10;;;;;;;;;;5094107;28;20464;-66
2022/05/25 01:30:10;;;;;;;1.40;0.80;;;;;;;;;;5094364;28;20124;-66
2022/05/25 01:32:40;;;;;;;4.03;1.15;;;;;;;;;;5094299;28;20047;-66
2022/05/25 01:35:12;;;;;;;2.47;1.00;;;;;;;;;;5089248;28;20507;-66
2022/05/25 01:37:38;;;;;;;1.98;1.20;;;;;;;;;;5074399;28;20440;-67
2022/05/25 01:40:12;;;;;;;2.72;1.00;;;;;;;;;;5094095;28;20047;-67
2022/05/25 01:42:43;;;;;;;2.65;1.10;;;;;;;;;;5086965;28;20475;-67
2022/05/25 01:45:09;;;;;;;1.73;0.70;;;;;;;;;;5094151;28;20123;-67
2022/05/25 01:47:38;;;;;;;2.60;0.80;;;;;;;;;;5093945;28;20040;-67
2022/05/25 01:50:07;;;;;;;3.03;0.82;;;;;;;;;;5093604;28;20082;-66
2022/05/25 01:52:37;;;;;;;4.13;0.90;;;;;;;;;;5093853;28;20079;-66
2022/05/25 01:55:08;;;;;;;4.50;0.80;;;;;;;;;;5092517;28;20218;-66
2022/05/25 01:57:36;;;;;;;3.28;0.70;;;;;;;;;;5093409;28;20083;-66
2022/05/25 02:00:04;;;;;;;6.70;1.08;;;;;;;;;;5093353;28;20101;-66
2022/05/25 02:05:17;;;;;;;3.13;0.65;;;;;;;;;;5093541;28;20036;-66
2022/05/25 02:08:02;;;;;;;2.85;0.70;;;;;;;;;;5093212;28;20083;-66
2022/05/25 02:10:31;;;;;;;2.40;0.70;;;;;;;;;;5093956;28;20079;-67
2022/05/25 02:13:13;;;;;;;2.67;0.90;;;;;;;;;;5093220;28;20086;-66
2022/05/25 02:15:49;;;;;;;4.28;0.90;;;;;;;;;;5092304;28;20092;-66
2022/05/25 02:18:15;;;;;;;3.15;0.70;;;;;;;;;;5093057;28;20044;-66
2022/05/25 02:20:42;;;;;;;4.75;1.13;;;;;;;;;;5093034;28;20075;-66
2022/05/25 02:23:28;;;;;;;3.20;0.98;;;;;;;;;;5093224;28;20166;-66
2022/05/25 02:26:02;;;;;;;2.57;0.80;;;;;;;;;;5092875;28;20068;-66
2022/05/25 02:28:34;;;;;;;2.63;0.80;;;;;;;;;;5092943;28;20074;-66
2022/05/25 02:31:03;;;;;;;3.33;0.85;;;;;;;;;;5091658;28;20098;-66
2022/05/25 02:33:43;;;;;;;3.08;0.75;;;;;;;;;;5093153;28;20047;-66
2022/05/25 02:36:10;;;;;;;4.18;1.10;;;;;;;;;;5079065;28;20087;-66
2022/05/25 02:38:38;;;;;;;4.70;1.05;;;;;;;;;;5088855;28;20477;-66
2022/05/25 02:41:06;;;;;;;4.22;0.98;;;;;;;;;;5092665;28;20097;-66
2022/05/25 02:43:32;;;;;;;;;;;;;;;;;;5093043;28;20084;-66
2022/05/25 02:45:58;;;;;;;3.13;1.33;;;;;;;;;;5092971;28;19924;-65
2022/05/25 02:48:25;;;;;;;3.47;0.82;;;;;;;;;;5092788;28;20078;-66
2022/05/25 02:50:51;;;;;;;3.80;0.90;;;;;;;;;;5092698;28;20090;-66
2022/05/25 02:53:20;;;;;;;4.97;1.20;;;;;;;;;;5091637;28;20083;-66
2022/05/25 02:55:46;;;;;;;5.50;1.75;;;;;;;;;;5092239;28;20105;-66
2022/05/25 02:58:12;;;;;;;2.97;1.05;;;;;;;;;;5092633;28;20075;-66
2022/05/25 03:00:39;;;;;;;4.25;1.17;;;;;;;;;;5092771;28;20131;-67
2022/05/25 03:03:05;;;;;;;3.67;0.98;;;;;;;;;;5092287;28;20123;-67
2022/05/25 03:05:32;;;;;;;2.20;1.25;;;;;;;;;;5092390;28;20592;-66
2022/05/25 03:07:58;;;;;;;8.50;1.23;;;;;;;;;;5091741;28;20075;-66
2022/05/25 03:10:25;;;;;;;2.28;1.48;;;;;;;;;;5092345;28;20128;-66
2022/05/25 03:12:51;;;;;;;6.75;1.45;;;;;;;;;;5092395;28;20082;-67
2022/05/25 03:15:20;;;;;;;4.70;1.13;;;;;;;;;;5092278;28;20040;-67
2022/05/25 03:17:47;;;;;;;7.43;1.00;;;;;;;;;;5092098;28;20056;-67
2022/05/25 03:20:13;;;;;;;3.38;1.40;;;;;;;;;;5091955;28;20043;-67
2022/05/25 03:22:46;;;;;;;4.55;0.95;;;;;;;;;;5092242;28;20054;-66
2022/05/25 03:25:13;;;;;;;3.47;1.05;;;;;;;;;;5092292;28;20071;-66
2022/05/25 03:27:40;;;;;;;1.85;0.80;;;;;;;;;;5092552;28;20075;-66
2022/05/25 03:30:08;;;;;;;4.38;0.90;;;;;;;;;;5092116;28;20126;-67
2022/05/25 03:32:35;;;;;;;3.00;0.90;;;;;;;;;;5091853;28;20079;-66
2022/05/25 03:35:02;;;;;;;6.32;0.93;;;;;;;;;;5087441;28;20136;-66
2022/05/25 03:37:28;;;;;;;3.30;1.10;;;;;;;;;;5080094;28;20062;-67
2022/05/25 03:39:55;;;;;;;4.50;1.15;;;;;;;;;;5091552;28;20281;-67
2022/05/25 03:42:22;;;;;;;5.70;1.25;;;;;;;;;;5091723;28;20048;-67
2022/05/25 03:44:49;;;;;;;6.43;1.42;;;;;;;;;;5092038;28;20131;-67
2022/05/25 03:47:16;;;;;;;6.57;1.02;;;;;;;;;;5091995;28;20142;-67
2022/05/25 03:49:42;;;;;;;4.80;1.10;;;;;;;;;;5091942;28;20075;-67
2022/05/25 03:52:10;;;;;;;3.45;1.10;;;;;;;;;;5091837;28;20047;-68
2022/05/25 03:54:37;;;;;;;4.40;1.40;;;;;;;;;;5090606;28;20047;-69
2022/05/25 03:57:04;;;;;;;4.13;0.80;;;;;;;;;;5091856;28;20056;-68
2022/05/25 03:59:30;;;;;;;3.17;1.10;;;;;;;;;;5091548;28;20052;-68
2022/05/25 04:01:57;;;;;;;3.63;1.15;;;;;;;;;;5091464;28;20324;-68
2022/05/25 04:04:23;;;;;;;8.25;2.03;;;;;;;;;;5091461;28;20069;-69
2022/05/25 04:06:50;;;;;;;5.50;1.38;;;;;;;;;;5091815;28;20048;-68
2022/05/25 04:09:16;;;;;;;2.33;0.60;;;;;;;;;;5091764;28;20079;-68
2022/05/25 04:11:43;;;;;;;6.28;1.30;;;;;;;;;;5091452;28;20076;-68
2022/05/25 04:14:09;;;;;;;2.00;0.80;;;;;;;;;;5091395;28;20090;-67
2022/05/25 04:16:36;;;;;;;4.13;1.13;;;;;;;;;;5091327;28;20084;-66
2022/05/25 04:19:02;;;;;;;3.10;0.70;;;;;;;;;;5091636;28;20052;-67
2022/05/25 04:21:29;;;;;;;4.25;0.90;;;;;;;;;;5095426;28;20078;-67
2022/05/25 04:23:55;;;;;;;4.25;1.85;;;;;;;;;;5095569;28;20078;-66
2022/05/25 04:26:22;;;;;;;2.97;0.90;;;;;;;;;;5095266;28;20492;-67
2022/05/25 04:28:48;;;;;;;3.17;0.68;;;;;;;;;;5095619;28;20087;-69
2022/05/25 04:31:16;;;;;;;4.43;0.98;;;;;;;;;;5095213;28;20105;-69
2022/05/25 04:33:42;;;;;;;3.42;0.95;;;;;;;;;;5095268;28;20560;-69
2022/05/25 04:36:08;;;;;;;7.60;1.15;;;;;;;;;;5081859;28;20106;-69
2022/05/25 04:38:36;;;;;;;6.72;1.23;;;;;;;;;;5093975;28;20060;-69
2022/05/25 04:41:02;;;;;;;6.70;1.08;;;;;;;;;;5094107;28;20105;-69
2022/05/25 04:43:29;;;;;;;5.07;1.00;;;;;;;;;;5095128;28;20055;-69
2022/05/25 04:45:56;;;;;;;3.33;1.02;;;;;;;;;;5095299;28;20130;-69
2022/05/25 04:48:25;;;;;;;3.35;0.70;;;;;;;;;;5095109;28;20056;-69
2022/05/25 04:50:53;;;;;;;4.32;0.90;;;;;;;;;;5095131;28;20048;-69
2022/05/25 04:53:20;;;;;;;3.92;0.70;;;;;;;;;;5094942;28;20599;-69
2022/05/25 04:58:35;;;;;;;5.43;1.10;;;;;;;;;;5094748;28;20052;-69
2022/05/25 05:01:03;;;;;;;3.88;1.17;;;;;;;;;;5094933;28;20141;-69
2022/05/25 05:03:30;;;;;;;5.75;0.80;;;;;;;;;;5094993;28;20095;-69
2022/05/25 05:05:56;;;;;;;4.18;1.02;;;;;;;;;;5094904;28;20098;-69
2022/05/25 05:08:23;;;;;;;4.93;1.20;;;;;;;;;;5094919;28;20071;-69
2022/05/25 05:10:50;;;;;;;9.05;1.27;;;;;;;;;;5094407;28;20040;-69
2022/05/25 05:13:17;;;;;;;5.70;1.10;;;;;;;;;;5094748;28;20074;-69
2022/05/25 05:15:45;;;;;;;4.88;0.98;;;;;;;;;;5094388;28;20492;-69
2022/05/25 05:18:11;;;;;;;5.07;0.90;;;;;;;;;;5094494;28;20086;-69
2022/05/25 05:20:39;;;;;;;4.55;1.40;;;;;;;;;;5094229;28;20074;-69
2022/05/25 05:23:09;;;;;;;5.65;1.10;;;;;;;;;;5093038;28;20069;-69
2022/05/25 05:25:36;;;;;;;6.95;1.33;;;;;;;;;;5094490;28;20441;-69
2022/05/25 05:28:05;;;;;;;3.05;1.38;;;;;;;;;;5094386;28;20097;-69
2022/05/25 05:30:33;;;;;;;4.07;1.15;;;;;;;;;;5094462;28;20446;-69
2022/05/25 05:32:59;;;;;;;;;;;;;;;;;;5093967;28;20117;-69
2022/05/25 05:35:28;;;;;;;2.25;0.70;;;;;;;;;;5086509;28;19921;-69
2022/05/25 05:37:55;;;;;;;4.68;1.08;;;;;;;;;;5086951;28;20058;-69
2022/05/25 05:40:22;;;;;;;1.98;1.10;;;;;;;;;;5093931;28;20101;-69
2022/05/25 05:42:49;;;;;;;2.87;1.07;;;;;;;;;;5093567;28;20075;-69
2022/05/25 05:45:21;;;;;;;3.30;0.93;;;;;;;;;;5093229;28;20276;-69
2022/05/25 05:47:51;;;;;;;3.85;1.10;;;;;;;;;;5093394;28;20131;-68
2022/05/25 05:50:18;;;;;;;3.47;0.90;;;;;;;;;;5093288;28;20522;-69
2022/05/25 05:52:45;;;;;;;4.32;0.82;;;;;;;;;;5093365;28;20079;-69
2022/05/25 05:55:12;;;;;;;3.45;0.82;;;;;;;;;;5092606;28;20507;-68
2022/05/25 05:57:39;;;;;;;2.33;0.88;;;;;;;;;;5082651;28;20076;-69
2022/05/25 06:00:06;;;;;;;3.25;1.10;;;;;;;;;;5089930;28;20128;-68
2022/05/25 06:02:32;;;;;;;8.30;1.67;;;;;;;;;;5092131;28;20094;-68
2022/05/25 06:04:59;;;;;;;3.88;1.10;;;;;;;;;;5093296;28;20093;-68
2022/05/25 06:07:26;;;;;;;5.57;1.25;;;;;;;;;;5092496;28;20093;-69
2022/05/25 06:09:52;;;;;;;2.63;0.60;;;;;;;;;;5092226;28;20052;-69
2022/05/25 06:12:19;;;;;;;3.80;0.93;;;;;;;;;;5092595;28;20047;-69
2022/05/25 06:14:45;;;;;;;4.38;0.80;;;;;;;;;;5092003;28;20408;-69
2022/05/25 06:19:57;;;;;;;6.22;1.15;;;;;;;;;;5093431;28;20120;-69
2022/05/25 06:22:31;;;;;;;4.70;0.98;;;;;;;;;;5093332;28;20081;-69
2022/05/25 06:24:58;;;;;;;1.48;0.60;;;;;;;;;;5092026;28;20048;-69
2022/05/25 06:27:24;;;;;;;2.92;0.85;;;;;;;;;;5093000;28;20083;-72
2022/05/25 06:29:51;;;;;;;4.57;0.75;;;;;;;;;;5093106;28;20084;-70
2022/05/25 06:32:19;;;;;;;2.05;0.63;;;;;;;;;;5092938;28;20125;-68
2022/05/25 06:34:49;;;;;;;3.28;0.80;;;;;;;;;;5090790;28;20105;-68
2022/05/25 06:37:16;;;;;;;3.08;0.90;;;;;;;;;;5072608;28;20561;-69
2022/05/25 06:39:43;;;;;;;3.28;0.85;;;;;;;;;;5088742;28;20055;-69
2022/05/25 06:42:10;;;;;;;2.40;0.60;;;;;;;;;;5092696;28;20048;-68
2022/05/25 06:44:37;;;;;;;3.63;1.17;;;;;;;;;;5092577;28;20083;-69
2022/05/25 06:47:04;;;;;;;4.55;1.15;;;;;;;;;;5076803;28;20063;-68
2022/05/25 06:49:31;;;;;;;3.38;0.85;;;;;;;;;;5092733;28;20075;-68
2022/05/25 06:51:57;;;;;;;2.45;0.85;;;;;;;;;;5090696;28;20628;-68
2022/05/25 06:54:24;;;;;;;6.32;0.88;;;;;;;;;;5091832;28;20075;-68
2022/05/25 06:56:50;;;;;;;4.43;1.08;;;;;;;;;;5092365;28;20087;-68
2022/05/25 06:59:17;;;;;;;3.00;0.68;;;;;;;;;;5092331;28;20131;-68
2022/05/25 07:01:44;;;;;;;3.60;1.40;;;;;;;;;;5092305;28;20071;-69
2022/05/25 07:04:10;;;;;;;6.10;1.00;;;;;;;;;;5092285;28;20059;-68
2022/05/25 07:06:38;;;;;;;3.28;0.95;;;;;;;;;;5092429;28;20400;-68
2022/05/25 07:09:05;;;;;;;4.80;0.82;;;;;;;;;;5092543;28;20089;-68
2022/05/25 07:11:35;;;;;;;4.13;0.77;;;;;;;;;;5092594;28;20052;-68
2022/05/25 07:14:02;;;;;;;2.97;1.00;;;;;;;;;;5092191;28;20549;-68
2022/05/25 07:16:28;;;;;;;1.90;0.43;;;;;;;;;;5092159;28;20543;-68
2022/05/25 07:18:55;;;;;;;3.67;1.15;;;;;;;;;;5092077;28;20756;-69
2022/05/25 07:21:25;;;;;;;4.78;0.88;;;;;;;;;;5092210;28;20044;-68
2022/05/25 07:23:52;;;;;;;4.22;0.80;;;;;;;;;;5092424;28;20040;-68
2022/05/25 07:26:21;;;;;;;2.72;0.50;;;;;;;;;;5091873;28;20044;-69
2022/05/25 07:28:48;;;;;;;3.13;0.85;;;;;;;;;;5092002;28;20048;-68
2022/05/25 07:31:25;;;;;;;4.03;0.60;;;;;;;;;;5090830;28;20168;-68
2022/05/25 07:34:03;;;;;;;2.65;0.65;;;;;;;;;;5092075;28;20388;-68
2022/05/25 07:36:30;;;;;;;3.33;0.75;;;;;;;;;;5092163;28;20078;-68
2022/05/25 07:38:59;;;;;;;4.15;0.90;;;;;;;;;;5091627;28;20060;-68
2022/05/25 07:41:26;;;;;;;5.13;0.80;;;;;;;;;;5091992;28;20051;-68
2022/05/25 07:43:57;;;;;;;3.00;0.70;;;;;;;;;;5091743;28;20569;-68
2022/05/25 07:46:25;;;;;;;6.00;0.70;;;;;;;;;;5091959;28;20040;-68
2022/05/25 07:48:52;;;;;;;4.85;0.90;;;;;;;;;;5091785;28;20416;-68
2022/05/25 07:51:18;;;;;;;2.45;0.65;;;;;;;;;;5091891;28;20044;-68
2022/05/25 07:53:57;;;;;;;3.75;1.05;;;;;;;;;;5091677;28;20492;-68
2022/05/25 07:56:25;;;;;;;3.55;0.80;;;;;;;;;;5087845;28;20048;-68
2022/05/25 07:59:00;;;;;;;1.35;0.60;;;;;;;;;;5080493;28;20494;-68
2022/05/25 08:07:05;;;;;;;3.17;1.03;;;;;;;;;;5091765;28;20074;-68
2022/05/25 08:09:31;;;;;;;3.92;0.90;;;;;;;;;;5091719;28;20131;-68
2022/05/25 08:11:58;;;;;;;1.45;0.50;;;;;;;;;;5091535;28;20080;-68
2022/05/25 08:14:25;;;;;;;2.28;0.50;;;;;;;;;;5091408;28;20596;-68
2022/05/25 08:16:53;;;;;;;5.57;0.63;;;;;;;;;;5091777;28;20083;-68
2022/05/25 08:19:19;;;;;;;5.40;1.60;;;;;;;;;;5091547;28;20098;-68
2022/05/25 08:21:49;;;;;;;1.95;0.70;;;;;;;;;;5091662;28;20139;-68
2022/05/25 08:24:16;;;;;;;2.75;0.47;;;;;;;;;;5091726;28;20044;-68
2022/05/25 08:26:42;;;;;;;2.50;0.70;;;;;;;;;;5091276;28;20074;-68
2022/05/25 08:29:09;;;;;;;1.60;0.47;;;;;;;;;;5091397;28;20044;-68
2022/05/25 08:31:35;;;;;;;1.40;0.63;;;;;;;;;;5091243;28;20150;-66
2022/05/25 08:34:02;;;;;;;1.05;0.70;;;;;;;;;;5091619;28;20048;-66
2022/05/25 08:36:28;;;;;;;1.98;0.75;;;;;;;;;;5091498;28;20087;-67
2022/05/25 08:38:55;;;;;;;1.33;0.60;;;;;;;;;;5091045;28;20449;-66
2022/05/25 08:41:24;;;;;;;3.65;0.75;;;;;;;;;;5091546;28;20052;-67
2022/05/25 08:43:51;;;;;;;2.38;0.60;;;;;;;;;;5091422;28;20075;-67
2022/05/25 08:46:19;;;;;;;2.13;0.55;;;;;;;;;;5091421;28;20403;-67
2022/05/25 08:48:45;;;;;;;2.13;0.60;;;;;;;;;;5091449;28;20044;-67
2022/05/25 08:51:33;;;;;;;3.63;1.02;;;;;;;;;;5091417;28;20412;-67
2022/05/25 08:54:00;;;;;;;0.47;0.40;;;;;;;;;;5091085;28;20044;-68
2022/05/25 08:56:27;;;;;;;3.17;0.85;;;;;;;;;;5090077;28;20113;-67
2022/05/25 08:58:57;;;;;;;3.10;0.90;;;;;;;;;;5089783;28;20052;-68
2022/05/25 09:01:42;;;;;;;3.88;0.95;;;;;;;;;;5091424;28;20454;-68
2022/05/25 09:04:20;;;;;;;0.82;0.70;;;;;;;;;;5091024;28;20411;-68
2022/05/25 09:07:05;;;;;;;1.73;0.80;;;;;;;;;;5092298;28;20093;-68
2022/05/25 09:09:35;;;;;;;1.77;0.52;;;;;;;;;;5094505;28;20044;-68
2022/05/25 09:12:20;;;;;;;2.20;0.88;;;;;;;;;;5093328;28;20075;-69
2022/05/25 09:14:50;;;;;;;1.45;0.80;;;;;;;;;;5094703;28;20051;-68
2022/05/25 09:17:22;;;;;;;1.90;0.52;;;;;;;;;;5094832;28;20079;-69
2022/05/25 09:19:49;;;;;;;1.98;0.52;;;;;;;;;;5094633;28;20052;-68
2022/05/25 09:22:21;;;;;;;3.33;0.60;;;;;;;;;;5094263;28;20445;-69
2022/05/25 09:24:50;;;;;;;3.40;0.90;;;;;;;;;;5093004;28;20078;-69
2022/05/25 09:27:21;;;;;;;2.13;0.50;;;;;;;;;;5094481;28;20079;-69
2022/05/25 09:29:48;;;;;;;3.15;0.40;;;;;;;;;;5094167;28;20052;-68
2022/05/25 09:32:27;;;;;;;1.05;0.50;;;;;;;;;;5094172;28;20861;-68
2022/05/25 09:35:06;;;;;;;1.63;0.68;;;;;;;;;;5094358;28;20097;-68
2022/05/25 09:37:42;;;;;;;1.15;0.60;;;;;;;;;;5094094;28;20102;-68
2022/05/25 09:40:13;;;;;;;1.27;0.50;;;;;;;;;;5094288;28;20082;-68
2022/05/25 09:42:40;;;;;;;1.33;0.63;;;;;;;;;;5093955;28;20055;-68
2022/05/25 09:45:13;;;;;;;1.98;0.70;;;;;;;;;;5094134;28;20094;-68
2022/05/25 09:47:44;;;;;;;1.33;0.40;;;;;;;;;;5094194;28;20082;-68
2022/05/25 09:50:14;;;;;;;0.63;0.40;;;;;;;;;;5093757;28;20048;-68
2022/05/25 09:52:43;;;;;;;0.77;0.50;;;;;;;;;;5093732;28;20079;-68
2022/05/25 09:55:13;;;;;;;2.88;0.80;;;;;;;;;;5093832;28;20074;-68
2022/05/25 09:57:45;;;;;;;2.20;0.50;;;;;;;;;;5093936;28;20101;-68
2022/05/25 10:00:18;;;;;;;1.35;0.57;;;;;;;;;;5094025;28;20067;-68
2022/05/25 10:02:57;;;;;;;1.80;0.40;;;;;;;;;;5093404;28;20075;-69
2022/05/25 10:05:26;;;;;;;1.27;0.60;;;;;;;;;;5093816;28;20090;-68
2022/05/25 10:07:53;;;;;;;2.28;0.60;;;;;;;;;;5093370;28;20511;-68
2022/05/25 10:10:40;;;;;;;1.50;0.63;;;;;;;;;;5093444;28;20048;-68
2022/05/25 10:13:06;;;;;;;;;;;;;;;;;;5092611;28;20075;-68
2022/05/25 10:15:34;;;;;;;0.95;0.68;;;;;;;;;;5093325;28;19959;-68
2022/05/25 10:18:02;;;;;;;1.63;0.50;;;;;;;;;;5091990;28;20040;-67
2022/05/25 10:20:31;;;;;;;4.03;0.40;;;;;;;;;;5093396;28;20442;-68
2022/05/25 10:23:12;;;;;;;1.30;0.30;;;;;;;;;;5091825;28;20114;-68
2022/05/25 10:25:42;;;;;;;1.58;0.50;;;;;;;;;;5093462;28;20068;-68
2022/05/25 10:28:18;;;;;;;1.27;0.47;;;;;;;;;;5093335;28;20074;-68
2022/05/25 10:36:48;;;;;;;2.07;0.60;;;;;;;;;;5093021;28;20095;-68
2022/05/25 10:39:17;;;;;;;1.17;0.40;;;;;;;;;;5092764;28;20056;-69
2022/05/25 10:41:45;;;;;;;0.80;0.70;;;;;;;;;;5092853;28;20499;-69
2022/05/25 10:44:21;;;;;;;2.08;0.60;;;;;;;;;;5092923;28;20377;-69
2022/05/25 10:46:55;;;;;;;0.80;0.30;;;;;;;;;;5092985;28;20396;-68
2022/05/25 10:49:27;;;;;;;0.82;0.50;;;;;;;;;;5093054;28;20376;-68
2022/05/25 10:51:57;;;;;;;1.63;1.00;;;;;;;;;;5092876;28;20089;-69
2022/05/25 10:54:47;;;;;;;0.40;0.28;;;;;;;;;;5092534;28;20102;-69
2022/05/25 10:57:27;;;;;;;0.43;0.10;;;;;;;;;;5092833;28;20052;-69
2022/05/25 11:00:06;;;;;;;0.10;0.10;;;;;;;;;;5092780;28;20090;-69
2022/05/25 11:02:51;;;;;;;1.00;0.20;;;;;;;;;;5092397;28;20092;-69
2022/05/25 11:05:44;;;;;;;0.35;0.10;;;;;;;;;;5092384;28;20495;-69
2022/05/25 11:08:29;;;;;;;0.10;0.10;;;;;;;;;;5092384;28;20475;-69
2022/05/25 11:11:05;;;;;;;0.10;0.00;;;;;;;;;;5092201;28;20097;-69
2022/05/25 11:13:51;;;;;;;0.70;0.40;;;;;;;;;;5092342;28;20052;-69
2022/05/25 11:16:17;;;;;;;0.10;0.10;;;;;;;;;;5092166;28;20044;-69
2022/05/25 11:18:54;;;;;;;1.50;0.70;;;;;;;;;;5092207;28;20056;-69
2022/05/25 11:21:24;;;;;;;0.20;0.13;;;;;;;;;;5091086;28;20276;-69
2022/05/25 11:24:09;;;;;;;0.25;0.00;;;;;;;;;;5091937;28;20492;-69
2022/05/25 11:26:41;;;;;;;0.10;0.10;;;;;;;;;;5091999;28;20075;-68
2022/05/25 11:29:28;;;;;;;0.80;0.22;;;;;;;;;;5091511;28;20044;-69
2022/05/25 11:31:54;;;;;;;0.30;0.30;;;;;;;;;;5092079;28;20059;-69
2022/05/25 11:34:53;;;;;;;7.68;0.77;;;;;;;;;;5091858;28;20083;-69
2022/05/25 11:37:28;;;;;;;0.88;0.20;;;;;;;;;;5090540;28;20071;-68
2022/05/25 11:40:13;;;;;;;1.48;0.75;;;;;;;;;;5091638;28;20060;-69
2022/05/25 11:42:46;;;;;;;2.42;1.05;;;;;;;;;;5092006;28;20044;-68
2022/05/25 11:45:22;;;;;;;2.08;1.30;;;;;;;;;;5090733;28;20399;-69
2022/05/25 11:47:58;;;;;;;1.17;0.52;;;;;;;;;;5092054;28;20086;-69
2022/05/25 11:50:29;;;;;;;1.35;0.90;;;;;;;;;;5091973;28;20040;-69
2022/05/25 11:52:58;;;;;;;2.58;0.70;;;;;;;;;;5091720;28;20059;-70
2022/05/25 11:55:35;;;;;;;1.48;0.60;;;;;;;;;;5091955;28;20080;-70
2022/05/25 11:58:02;;;;;;;2.10;0.70;;;;;;;;;;5092071;28;20075;-70
2022/05/25 12:00:49;;;;;;;2.83;1.02;;;;;;;;;;5091845;28;20478;-70
2022/05/25 12:03:34;;;;;;;1.33;0.60;;;;;;;;;;5091341;28;20044;-69
2022/05/25 12:06:06;;;;;;;2.08;0.73;;;;;;;;;;5091529;28;20079;-69
2022/05/25 12:08:33;;;;;;;2.65;0.80;;;;;;;;;;5091861;28;20075;-69
2022/05/25 12:11:02;;;;;;;1.75;1.17;;;;;;;;;;5091393;28;20073;-69
2022/05/25 12:13:35;;;;;;;3.63;1.08;;;;;;;;;;5091596;28;20075;-68
2022/05/25 12:16:09;;;;;;;3.85;1.27;;;;;;;;;;5091625;28;20060;-68
2022/05/25 12:18:39;;;;;;;4.13;1.60;;;;;;;;;;5091763;28;20063;-68
2022/05/25 12:21:18;;;;;;;6.65;1.58;;;;;;;;;;5091383;28;20052;-68
2022/05/25 12:23:50;;;;;;;4.80;1.50;;;;;;;;;;5091435;28;20044;-68
2022/05/25 12:26:18;;;;;;;4.00;1.80;;;;;;;;;;5091548;28;20079;-68
2022/05/25 12:28:46;;;;;;;6.63;2.00;;;;;;;;;;5091663;28;20071;-67
2022/05/25 12:31:18;;;;;;;6.50;2.00;;;;;;;;;;5091277;28;20079;-68
2022/05/25 12:33:45;;;;;;;9.73;3.67;;;;;;;;;;5091631;28;20075;-67
2022/05/25 12:36:12;;;;;;;8.57;3.28;;;;;;;;;;5091233;28;20052;-67
2022/05/25 12:38:39;;;;;;;8.98;4.53;;;;;;;;;;5091059;28;20084;-67
2022/05/25 12:41:23;;;;;;;7.07;2.92;;;;;;;;;;5093062;28;20059;-67
2022/05/25 12:43:51;;;;;;;6.32;2.45;;;;;;;;;;5095181;28;20083;-67
2022/05/25 12:49:30;;;;;;;4.28;1.08;;;;;;;;;;5095009;28;20127;-67
2022/05/25 12:51:56;;;;;;;6.18;1.52;;;;;;;;;;5095228;28;20056;-67
2022/05/25 12:54:24;;;;;;;7.30;1.67;;;;;;;;;;5095385;28;20097;-67
2022/05/25 12:56:50;;;;;;;;;;;;;;;;;;5095415;28;20056;-67
2022/05/25 12:59:29;;;;;;;3.80;1.50;;;;;;;;;;5094770;28;20383;-67
2022/05/25 13:02:09;;;;;;;5.75;2.03;;;;;;;;;;5094692;28;20495;-67
2022/05/25 13:04:47;;;;;;;5.72;1.52;;;;;;;;;;5094955;28;20040;-67
2022/05/25 13:07:23;;;;;;;4.88;1.70;;;;;;;;;;5094811;28;20044;-67
2022/05/25 13:09:49;;;;;;;6.18;1.55;;;;;;;;;;5094853;28;20076;-67
2022/05/25 13:12:35;;;;;;;6.82;1.77;;;;;;;;;;5094552;28;20561;-67
2022/05/25 13:15:02;;;;;;;6.78;1.98;;;;;;;;;;5094508;28;20127;-67
2022/05/25 13:17:48;;;;;;;5.80;2.05;;;;;;;;;;5094769;28;20052;-68
2022/05/25 13:20:47;;;;;;;4.15;0.98;;;;;;;;;;5094399;28;20097;-67
2022/05/25 13:23:32;;;;;;;5.03;1.23;;;;;;;;;;5094149;28;20510;-67
2022/05/25 13:26:03;;;;;;;4.88;1.08;;;;;;;;;;5094292;28;20135;-67
2022/05/25 13:28:49;;;;;;;5.65;1.58;;;;;;;;;;5094279;28;20492;-68
2022/05/25 13:31:27;;;;;;;4.00;1.27;;;;;;;;;;5094412;28;20105;-67
2022/05/25 13:33:56;;;;;;;5.63;1.35;;;;;;;;;;5094078;28;20135;-67
2022/05/25 13:36:24;;;;;;;2.60;0.65;;;;;;;;;;5094093;28;20052;-67
2022/05/25 13:39:07;;;;;;;2.65;0.95;;;;;;;;;;5093982;28;20468;-67
2022/05/25 13:41:41;;;;;;;3.10;0.80;;;;;;;;;;5094226;28;20419;-67
2022/05/25 13:44:09;;;;;;;5.55;1.08;;;;;;;;;;5093881;28;20044;-68
2022/05/25 13:46:41;;;;;;;4.57;1.10;;;;;;;;;;5093981;28;20098;-68
2022/05/25 13:49:09;;;;;;;4.55;1.27;;;;;;;;;;5094024;28;20483;-68
2022/05/25 13:51:36;;;;;;;4.15;1.15;;;;;;;;;;5094081;28;20051;-68
2022/05/25 13:54:19;;;;;;;6.28;1.35;;;;;;;;;;5093336;28;20079;-68
2022/05/25 13:57:08;;;;;;;4.05;1.05;;;;;;;;;;5093894;28;20056;-67
2022/05/25 13:59:36;;;;;;;5.38;1.10;;;;;;;;;;5093696;28;20090;-67
2022/05/25 14:02:21;;;;;;;5.45;1.65;;;;;;;;;;5093933;28;20079;-67
2022/05/25 14:04:48;;;;;;;3.90;1.23;;;;;;;;;;5093785;28;20110;-67
2022/05/25 14:07:26;;;;;;;6.00;1.00;;;;;;;;;;5093840;28;20123;-67
2022/05/25 14:12:41;;;;;;;4.90;1.00;;;;;;;;;;5093284;28;20560;-67
2022/05/25 14:15:15;;;;;;;3.87;1.00;;;;;;;;;;5093629;28;20090;-68
2022/05/25 14:17:52;;;;;;;2.22;0.60;;;;;;;;;;5093559;28;20503;-68
2022/05/25 14:20:18;;;;;;;1.83;0.40;;;;;;;;;;5084930;28;20124;-68
2022/05/25 14:22:46;;;;;;;3.92;0.65;;;;;;;;;;5073213;28;20492;-68
2022/05/25 14:25:17;;;;;;;2.70;0.77;;;;;;;;;;5079820;28;20086;-67
2022/05/25 14:27:45;;;;;;;3.30;0.90;;;;;;;;;;5093353;28;20052;-67
2022/05/25 14:30:17;;;;;;;3.15;0.47;;;;;;;;;;5093156;28;20093;-67
2022/05/25 14:32:56;;;;;;;2.72;0.80;;;;;;;;;;5093312;28;20084;-67
2022/05/25 14:35:23;;;;;;;2.83;0.80;;;;;;;;;;5093314;28;20048;-67
2022/05/25 14:37:50;;;;;;;3.20;0.90;;;;;;;;;;5092746;28;20084;-67
2022/05/25 14:40:54;;;;;;;3.80;1.00;;;;;;;;;;5092797;28;20070;-68
2022/05/25 14:43:34;;;;;;;4.25;1.10;;;;;;;;;;5093097;28;20131;-68
2022/05/25 14:46:27;;;;;;;4.45;0.85;;;;;;;;;;5092694;28;20059;-68
2022/05/25 14:48:55;;;;;;;3.70;0.93;;;;;;;;;;5092358;28;20127;-68
2022/05/25 14:51:26;;;;;;;3.80;0.90;;;;;;;;;;5092937;28;20071;-68
2022/05/25 14:54:09;;;;;;;4.78;1.15;;;;;;;;;;5092616;28;20109;-68
2022/05/25 14:56:36;;;;;;;5.13;1.17;;;;;;;;;;5092787;28;20064;-68
2022/05/25 14:59:03;;;;;;;3.25;1.25;;;;;;;;;;5092661;28;20495;-68
2022/05/25 15:01:32;;;;;;;3.50;1.50;;;;;;;;;;5092858;28;20075;-67
2022/05/25 15:04:00;;;;;;;5.38;1.20;;;;;;;;;;5091850;28;20056;-68
2022/05/25 15:06:29;;;;;;;5.03;1.10;;;;;;;;;;5092591;28;20126;-68
2022/05/25 15:08:55;;;;;;;3.15;1.00;;;;;;;;;;5092579;28;20160;-68
2022/05/25 15:11:21;;;;;;;4.18;0.90;;;;;;;;;;5092590;28;20094;-68
2022/05/25 15:19:23;;;;;;;5.07;0.73;;;;;;;;;;5092148;28;20060;-68
2022/05/25 15:21:50;;;;;;;3.35;1.23;;;;;;;;;;5092099;28;20048;-68
2022/05/25 15:24:36;;;;;;;3.70;1.20;;;;;;;;;;5092142;28;20052;-68
2022/05/25 15:27:04;;;;;;;2.43;0.77;;;;;;;;;;5092083;28;20482;-67
2022/05/25 15:29:32;;;;;;;3.65;1.05;;;;;;;;;;5090685;28;20480;-67
2022/05/25 15:32:00;;;;;;;3.90;0.90;;;;;;;;;;5092170;28;20044;-68
2022/05/25 15:34:27;;;;;;;5.93;1.20;;;;;;;;;;5092242;28;20047;-67